Terminal Aerodrome Forecast
Issued by NWS

Home | Current Version | Previous Version | Graphics & Text | Print | Product List | Glossary On
Versions: 1 2 3 4 5 6 7 8 9 10 11 12 13 14 15
000
FTUS43 KICT 041726
TAFCNU
TAF
KCNU 041726Z 0418/0518 18016G23KT P6SM BKN100
     FM050100 16009KT P6SM SCT120
     FM051400 16013KT P6SM SCT030 BKN120=

USA.gov is the U.S. government's official web portal to all federal, state and local government web resources and services.